Terminal Aerodrome Forecast
Issued by NWS

Home | Current Version | Previous Version | Text Only | Print | Product List | Glossary On
Versions: 1 2 3 4 5 6 7 8 9 10 11 12
000
FTUS45 KREV 171738
TAFTRK
TAF
KTRK 171738Z 1718/1818 VRB03KT P6SM FEW250
     FM172000 21008KT P6SM SCT200
     FM180800 20011G20KT P6SM SCT060 BKN200
     FM181100 21015G25KT P6SM SCT050 BKN200 WS020/28040KT=

USA.gov is the U.S. government's official web portal to all federal, state and local government web resources and services.